sensor_id;sensor_type;location;lat;lon;timestamp;P1;durP1;ratioP1;P2;durP2;ratioP2
1591;SDS011;789;51.612;7.510;2023-10-13T00:00:14;22.03;;;16.60;;
1591;SDS011;789;51.612;7.510;2023-10-13T00:02:54;21.53;;;17.13;;
1591;SDS011;789;51.612;7.510;2023-10-13T00:05:25;21.57;;;17.30;;
1591;SDS011;789;51.612;7.510;2023-10-13T00:07:55;19.83;;;16.47;;
1591;SDS011;789;51.612;7.510;2023-10-13T00:10:25;20.73;;;16.87;;
1591;SDS011;789;51.612;7.510;2023-10-13T00:12:53;23.40;;;16.77;;
1591;SDS011;789;51.612;7.510;2023-10-13T00:15:21;17.20;;;15.40;;
1591;SDS011;789;51.612;7.510;2023-10-13T00:17:53;20.67;;;16.30;;
1591;SDS011;789;51.612;7.510;2023-10-13T00:20:20;19.67;;;16.30;;
1591;SDS011;789;51.612;7.510;2023-10-13T00:23:00;18.20;;;16.23;;
1591;SDS011;789;51.612;7.510;2023-10-13T00:25:27;17.30;;;15.70;;
1591;SDS011;789;51.612;7.510;2023-10-13T00:27:59;18.10;;;16.10;;
1591;SDS011;789;51.612;7.510;2023-10-13T00:30:27;17.43;;;15.23;;
1591;SDS011;789;51.612;7.510;2023-10-13T00:32:59;16.80;;;14.40;;
1591;SDS011;789;51.612;7.510;2023-10-13T00:35:26;18.03;;;14.73;;
1591;SDS011;789;51.612;7.510;2023-10-13T00:37:54;20.20;;;14.30;;
1591;SDS011;789;51.612;7.510;2023-10-13T00:40:22;16.10;;;14.50;;
1591;SDS011;789;51.612;7.510;2023-10-13T00:43:06;17.77;;;14.70;;
1591;SDS011;789;51.612;7.510;2023-10-13T00:45:50;20.67;;;14.63;;
1591;SDS011;789;51.612;7.510;2023-10-13T00:48:21;19.23;;;14.57;;
1591;SDS011;789;51.612;7.510;2023-10-13T00:50:53;16.97;;;14.47;;
1591;SDS011;789;51.612;7.510;2023-10-13T00:53:22;19.77;;;14.70;;
1591;SDS011;789;51.612;7.510;2023-10-13T00:55:50;15.73;;;14.03;;
1591;SDS011;789;51.612;7.510;2023-10-13T00:58:20;17.27;;;14.67;;
1591;SDS011;789;51.612;7.510;2023-10-13T01:00:49;17.27;;;13.73;;
1591;SDS011;789;51.612;7.510;2023-10-13T01:03:22;14.87;;;13.27;;
1591;SDS011;789;51.612;7.510;2023-10-13T01:05:52;17.93;;;14.33;;
1591;SDS011;789;51.612;7.510;2023-10-13T01:08:30;16.13;;;12.80;;
1591;SDS011;789;51.612;7.510;2023-10-13T01:10:59;18.67;;;12.67;;
1591;SDS011;789;51.612;7.510;2023-10-13T01:13:25;14.77;;;13.20;;
1591;SDS011;789;51.612;7.510;2023-10-13T01:15:57;14.70;;;13.20;;
1591;SDS011;789;51.612;7.510;2023-10-13T01:18:23;17.43;;;12.77;;
1591;SDS011;789;51.612;7.510;2023-10-13T01:20:53;14.07;;;12.53;;
1591;SDS011;789;51.612;7.510;2023-10-13T01:23:25;14.17;;;12.70;;
1591;SDS011;789;51.612;7.510;2023-10-13T01:25:53;13.27;;;11.73;;
1591;SDS011;789;51.612;7.510;2023-10-13T01:28:19;15.40;;;13.27;;
1591;SDS011;789;51.612;7.510;2023-10-13T01:30:47;18.07;;;12.70;;
1591;SDS011;789;51.612;7.510;2023-10-13T01:33:15;18.20;;;13.73;;
1591;SDS011;789;51.612;7.510;2023-10-13T01:35:42;13.37;;;11.83;;
1591;SDS011;789;51.612;7.510;2023-10-13T01:38:12;20.57;;;12.97;;
1591;SDS011;789;51.612;7.510;2023-10-13T01:40:42;14.47;;;12.57;;
1591;SDS011;789;51.612;7.510;2023-10-13T01:43:09;14.47;;;12.97;;
1591;SDS011;789;51.612;7.510;2023-10-13T01:45:36;13.83;;;12.17;;
1591;SDS011;789;51.612;7.510;2023-10-13T01:48:14;16.53;;;12.97;;
1591;SDS011;789;51.612;7.510;2023-10-13T01:50:42;17.83;;;12.13;;
1591;SDS011;789;51.612;7.510;2023-10-13T01:53:12;16.83;;;11.80;;
1591;SDS011;789;51.612;7.510;2023-10-13T01:55:39;18.50;;;13.10;;
1591;SDS011;789;51.612;7.510;2023-10-13T01:58:09;17.30;;;13.40;;
1591;SDS011;789;51.612;7.510;2023-10-13T02:00:40;14.00;;;12.50;;
1591;SDS011;789;51.612;7.510;2023-10-13T02:03:08;16.50;;;13.03;;
1591;SDS011;789;51.612;7.510;2023-10-13T02:05:41;16.67;;;13.30;;
1591;SDS011;789;51.612;7.510;2023-10-13T02:08:12;16.40;;;13.97;;
1591;SDS011;789;51.612;7.510;2023-10-13T02:10:43;15.20;;;13.60;;
1591;SDS011;789;51.612;7.510;2023-10-13T02:13:14;16.17;;;13.30;;
1591;SDS011;789;51.612;7.510;2023-10-13T02:15:43;16.10;;;13.53;;
1591;SDS011;789;51.612;7.510;2023-10-13T02:18:13;15.70;;;14.10;;
1591;SDS011;789;51.612;7.510;2023-10-13T02:20:45;16.70;;;13.00;;
1591;SDS011;789;51.612;7.510;2023-10-13T02:23:19;17.43;;;13.50;;
1591;SDS011;789;51.612;7.510;2023-10-13T02:25:46;15.07;;;13.57;;
1591;SDS011;789;51.612;7.510;2023-10-13T02:28:14;15.53;;;13.00;;
1591;SDS011;789;51.612;7.510;2023-10-13T02:30:40;14.83;;;13.20;;
1591;SDS011;789;51.612;7.510;2023-10-13T02:33:11;15.73;;;13.17;;
1591;SDS011;789;51.612;7.510;2023-10-13T02:35:37;22.13;;;13.40;;
1591;SDS011;789;51.612;7.510;2023-10-13T02:38:15;14.70;;;12.83;;
1591;SDS011;789;51.612;7.510;2023-10-13T02:40:50;16.20;;;12.57;;
1591;SDS011;789;51.612;7.510;2023-10-13T02:43:20;18.20;;;14.20;;
1591;SDS011;789;51.612;7.510;2023-10-13T02:45:54;15.10;;;12.50;;
1591;SDS011;789;51.612;7.510;2023-10-13T02:48:24;15.93;;;12.77;;
1591;SDS011;789;51.612;7.510;2023-10-13T02:50:55;15.30;;;13.53;;
1591;SDS011;789;51.612;7.510;2023-10-13T02:53:26;15.30;;;13.60;;
1591;SDS011;789;51.612;7.510;2023-10-13T02:55:53;18.20;;;13.47;;
1591;SDS011;789;51.612;7.510;2023-10-13T02:58:32;16.07;;;14.07;;
1591;SDS011;789;51.612;7.510;2023-10-13T03:01:04;14.57;;;11.60;;
1591;SDS011;789;51.612;7.510;2023-10-13T03:03:42;14.90;;;13.30;;
1591;SDS011;789;51.612;7.510;2023-10-13T03:06:20;16.90;;;14.13;;
1591;SDS011;789;51.612;7.510;2023-10-13T03:08:57;18.30;;;13.83;;
1591;SDS011;789;51.612;7.510;2023-10-13T03:11:25;14.50;;;12.70;;
1591;SDS011;789;51.612;7.510;2023-10-13T03:13:59;16.83;;;15.07;;
1591;SDS011;789;51.612;7.510;2023-10-13T03:16:31;16.40;;;14.43;;
1591;SDS011;789;51.612;7.510;2023-10-13T03:18:59;16.47;;;14.90;;
1591;SDS011;789;51.612;7.510;2023-10-13T03:21:32;18.43;;;14.53;;
1591;SDS011;789;51.612;7.510;2023-10-13T03:24:01;17.17;;;15.47;;
1591;SDS011;789;51.612;7.510;2023-10-13T03:26:32;16.30;;;14.70;;
1591;SDS011;789;51.612;7.510;2023-10-13T03:29:04;17.47;;;15.57;;
1591;SDS011;789;51.612;7.510;2023-10-13T03:31:38;23.10;;;15.20;;
1591;SDS011;789;51.612;7.510;2023-10-13T03:34:05;17.23;;;15.37;;
1591;SDS011;789;51.612;7.510;2023-10-13T03:36:36;17.67;;;15.80;;
1591;SDS011;789;51.612;7.510;2023-10-13T03:39:23;16.30;;;14.43;;
1591;SDS011;789;51.612;7.510;2023-10-13T03:41:56;15.93;;;14.23;;
1591;SDS011;789;51.612;7.510;2023-10-13T03:44:26;17.80;;;14.53;;
1591;SDS011;789;51.612;7.510;2023-10-13T03:46:57;16.07;;;14.47;;
1591;SDS011;789;51.612;7.510;2023-10-13T03:49:33;21.57;;;16.90;;
1591;SDS011;789;51.612;7.510;2023-10-13T03:52:03;22.57;;;17.83;;
1591;SDS011;789;51.612;7.510;2023-10-13T03:54:31;18.03;;;16.13;;
1591;SDS011;789;51.612;7.510;2023-10-13T03:57:00;17.43;;;15.20;;
1591;SDS011;789;51.612;7.510;2023-10-13T03:59:37;18.67;;;16.53;;
1591;SDS011;789;51.612;7.510;2023-10-13T04:02:04;22.67;;;20.27;;
1591;SDS011;789;51.612;7.510;2023-10-13T04:04:37;25.70;;;22.00;;
1591;SDS011;789;51.612;7.510;2023-10-13T04:07:18;23.30;;;20.00;;
1591;SDS011;789;51.612;7.510;2023-10-13T04:10:07;23.60;;;21.20;;
1591;SDS011;789;51.612;7.510;2023-10-13T04:12:51;29.27;;;21.63;;
1591;SDS011;789;51.612;7.510;2023-10-13T04:15:37;31.37;;;23.97;;
1591;SDS011;789;51.612;7.510;2023-10-13T04:18:08;23.07;;;18.83;;
1591;SDS011;789;51.612;7.510;2023-10-13T04:20:55;19.40;;;16.80;;
1591;SDS011;789;51.612;7.510;2023-10-13T04:23:35;21.83;;;18.70;;
1591;SDS011;789;51.612;7.510;2023-10-13T04:26:23;23.50;;;20.20;;
1591;SDS011;789;51.612;7.510;2023-10-13T04:29:01;23.20;;;19.30;;
1591;SDS011;789;51.612;7.510;2023-10-13T04:31:37;18.47;;;16.57;;
1591;SDS011;789;51.612;7.510;2023-10-13T04:34:22;17.03;;;15.23;;
1591;SDS011;789;51.612;7.510;2023-10-13T04:36:53;24.73;;;14.13;;
1591;SDS011;789;51.612;7.510;2023-10-13T04:39:36;16.53;;;12.97;;
1591;SDS011;789;51.612;7.510;2023-10-13T04:42:04;18.80;;;14.60;;
1591;SDS011;789;51.612;7.510;2023-10-13T04:44:39;16.83;;;15.13;;
1591;SDS011;789;51.612;7.510;2023-10-13T04:47:15;19.37;;;15.60;;
1591;SDS011;789;51.612;7.510;2023-10-13T04:49:46;17.23;;;15.30;;
1591;SDS011;789;51.612;7.510;2023-10-13T04:52:17;18.57;;;15.67;;
1591;SDS011;789;51.612;7.510;2023-10-13T04:55:01;16.50;;;14.60;;
1591;SDS011;789;51.612;7.510;2023-10-13T04:57:42;19.43;;;16.80;;
1591;SDS011;789;51.612;7.510;2023-10-13T05:00:14;37.37;;;33.67;;
1591;SDS011;789;51.612;7.510;2023-10-13T05:03:00;46.50;;;42.20;;
1591;SDS011;789;51.612;7.510;2023-10-13T05:06:17;17.27;;;15.43;;
1591;SDS011;789;51.612;7.510;2023-10-13T05:09:01;18.20;;;15.90;;
1591;SDS011;789;51.612;7.510;2023-10-13T05:11:54;20.43;;;17.77;;
1591;SDS011;789;51.612;7.510;2023-10-13T05:14:38;27.63;;;20.60;;
1591;SDS011;789;51.612;7.510;2023-10-13T05:17:22;21.20;;;17.40;;
1591;SDS011;789;51.612;7.510;2023-10-13T05:20:09;28.23;;;20.90;;
1591;SDS011;789;51.612;7.510;2023-10-13T05:22:53;26.43;;;19.90;;
1591;SDS011;789;51.612;7.510;2023-10-13T05:25:37;29.83;;;23.10;;
1591;SDS011;789;51.612;7.510;2023-10-13T05:28:22;26.20;;;20.30;;
1591;SDS011;789;51.612;7.510;2023-10-13T05:31:05;22.73;;;20.30;;
1591;SDS011;789;51.612;7.510;2023-10-13T05:33:50;20.47;;;17.93;;
1591;SDS011;789;51.612;7.510;2023-10-13T05:36:47;24.57;;;19.27;;
1591;SDS011;789;51.612;7.510;2023-10-13T05:39:31;19.87;;;17.33;;
1591;SDS011;789;51.612;7.510;2023-10-13T05:42:16;18.40;;;16.43;;
1591;SDS011;789;51.612;7.510;2023-10-13T05:45:00;26.10;;;18.90;;
1591;SDS011;789;51.612;7.510;2023-10-13T05:47:47;20.33;;;18.17;;
1591;SDS011;789;51.612;7.510;2023-10-13T05:50:26;32.00;;;25.53;;
1591;SDS011;789;51.612;7.510;2023-10-13T05:53:16;32.90;;;24.73;;
1591;SDS011;789;51.612;7.510;2023-10-13T05:56:01;30.57;;;24.47;;
1591;SDS011;789;51.612;7.510;2023-10-13T05:58:45;35.47;;;28.30;;
1591;SDS011;789;51.612;7.510;2023-10-13T06:01:30;33.80;;;23.73;;
1591;SDS011;789;51.612;7.510;2023-10-13T06:04:15;24.73;;;19.37;;
1591;SDS011;789;51.612;7.510;2023-10-13T06:06:59;23.63;;;18.63;;
1591;SDS011;789;51.612;7.510;2023-10-13T06:09:45;31.50;;;20.80;;
1591;SDS011;789;51.612;7.510;2023-10-13T06:12:29;24.30;;;18.20;;
1591;SDS011;789;51.612;7.510;2023-10-13T06:15:13;23.70;;;15.90;;
1591;SDS011;789;51.612;7.510;2023-10-13T06:17:58;17.17;;;14.57;;
1591;SDS011;789;51.612;7.510;2023-10-13T06:20:42;20.50;;;15.03;;
1591;SDS011;789;51.612;7.510;2023-10-13T06:23:26;18.10;;;13.90;;
1591;SDS011;789;51.612;7.510;2023-10-13T06:26:11;18.77;;;13.67;;
1591;SDS011;789;51.612;7.510;2023-10-13T06:28:56;16.23;;;14.10;;
1591;SDS011;789;51.612;7.510;2023-10-13T06:31:23;17.67;;;13.73;;
1591;SDS011;789;51.612;7.510;2023-10-13T06:33:51;17.00;;;12.67;;
1591;SDS011;789;51.612;7.510;2023-10-13T06:36:20;15.17;;;12.70;;
1591;SDS011;789;51.612;7.510;2023-10-13T06:38:47;21.20;;;17.10;;
1591;SDS011;789;51.612;7.510;2023-10-13T06:41:45;18.10;;;15.30;;
1591;SDS011;789;51.612;7.510;2023-10-13T06:44:11;16.60;;;12.37;;
1591;SDS011;789;51.612;7.510;2023-10-13T06:46:41;16.93;;;12.83;;
1591;SDS011;789;51.612;7.510;2023-10-13T06:49:11;13.70;;;12.27;;
1591;SDS011;789;51.612;7.510;2023-10-13T06:51:39;14.10;;;11.30;;
1591;SDS011;789;51.612;7.510;2023-10-13T06:54:06;15.13;;;10.33;;
1591;SDS011;789;51.612;7.510;2023-10-13T06:56:46;15.00;;;10.50;;
1591;SDS011;789;51.612;7.510;2023-10-13T06:59:17;14.30;;;10.37;;
1591;SDS011;789;51.612;7.510;2023-10-13T07:01:44;12.00;;;9.97;;
1591;SDS011;789;51.612;7.510;2023-10-13T07:04:13;13.80;;;9.53;;
1591;SDS011;789;51.612;7.510;2023-10-13T07:06:46;18.27;;;9.90;;
1591;SDS011;789;51.612;7.510;2023-10-13T07:09:14;11.03;;;9.80;;
1591;SDS011;789;51.612;7.510;2023-10-13T07:12:06;13.00;;;10.10;;
1591;SDS011;789;51.612;7.510;2023-10-13T07:14:44;16.30;;;10.10;;
1591;SDS011;789;51.612;7.510;2023-10-13T07:17:16;12.47;;;10.00;;
1591;SDS011;789;51.612;7.510;2023-10-13T07:19:48;14.20;;;9.00;;
1591;SDS011;789;51.612;7.510;2023-10-13T07:22:21;15.67;;;8.53;;
1591;SDS011;789;51.612;7.510;2023-10-13T07:24:48;11.43;;;8.27;;
1591;SDS011;789;51.612;7.510;2023-10-13T07:27:18;12.37;;;8.10;;
1591;SDS011;789;51.612;7.510;2023-10-13T07:29:49;15.30;;;8.60;;
1591;SDS011;789;51.612;7.510;2023-10-13T07:32:38;12.63;;;8.30;;
1591;SDS011;789;51.612;7.510;2023-10-13T07:35:10;14.27;;;8.10;;
1591;SDS011;789;51.612;7.510;2023-10-13T07:37:37;12.37;;;7.80;;
1591;SDS011;789;51.612;7.510;2023-10-13T07:40:06;13.43;;;8.10;;
1591;SDS011;789;51.612;7.510;2023-10-13T07:42:48;8.93;;;7.80;;
1591;SDS011;789;51.612;7.510;2023-10-13T07:45:15;11.63;;;7.30;;
1591;SDS011;789;51.612;7.510;2023-10-13T07:47:50;10.43;;;8.07;;
1591;SDS011;789;51.612;7.510;2023-10-13T07:50:17;9.80;;;8.50;;
1591;SDS011;789;51.612;7.510;2023-10-13T07:52:50;9.57;;;7.57;;
1591;SDS011;789;51.612;7.510;2023-10-13T07:55:24;14.83;;;8.83;;
1591;SDS011;789;51.612;7.510;2023-10-13T07:57:52;19.27;;;9.87;;
1591;SDS011;789;51.612;7.510;2023-10-13T08:00:20;14.10;;;8.20;;
1591;SDS011;789;51.612;7.510;2023-10-13T08:03:04;15.97;;;7.90;;
1591;SDS011;789;51.612;7.510;2023-10-13T08:05:56;10.80;;;8.30;;
1591;SDS011;789;51.612;7.510;2023-10-13T08:08:29;15.93;;;9.50;;
1591;SDS011;789;51.612;7.510;2023-10-13T08:11:03;16.30;;;11.70;;
1591;SDS011;789;51.612;7.510;2023-10-13T08:13:41;17.80;;;12.20;;
1591;SDS011;789;51.612;7.510;2023-10-13T08:16:12;32.73;;;22.37;;
1591;SDS011;789;51.612;7.510;2023-10-13T08:18:45;30.37;;;22.57;;
1591;SDS011;789;51.612;7.510;2023-10-13T08:21:14;26.40;;;18.03;;
1591;SDS011;789;51.612;7.510;2023-10-13T08:23:48;14.53;;;8.60;;
1591;SDS011;789;51.612;7.510;2023-10-13T08:26:25;19.90;;;9.57;;
1591;SDS011;789;51.612;7.510;2023-10-13T08:29:13;14.70;;;8.83;;
1591;SDS011;789;51.612;7.510;2023-10-13T08:31:53;24.93;;;9.27;;
1591;SDS011;789;51.612;7.510;2023-10-13T08:34:39;12.17;;;7.57;;
1591;SDS011;789;51.612;7.510;2023-10-13T08:37:25;11.63;;;6.70;;
1591;SDS011;789;51.612;7.510;2023-10-13T08:39:54;17.93;;;11.00;;
1591;SDS011;789;51.612;7.510;2023-10-13T08:42:46;19.50;;;10.53;;
1591;SDS011;789;51.612;7.510;2023-10-13T08:45:38;25.40;;;13.33;;
1591;SDS011;789;51.612;7.510;2023-10-13T08:48:24;18.93;;;10.70;;
1591;SDS011;789;51.612;7.510;2023-10-13T08:51:00;16.40;;;9.03;;
1591;SDS011;789;51.612;7.510;2023-10-13T08:53:37;14.53;;;8.43;;
1591;SDS011;789;51.612;7.510;2023-10-13T08:56:10;17.77;;;10.17;;
1591;SDS011;789;51.612;7.510;2023-10-13T08:58:43;17.63;;;9.70;;
1591;SDS011;789;51.612;7.510;2023-10-13T09:01:31;14.90;;;7.70;;
1591;SDS011;789;51.612;7.510;2023-10-13T09:04:13;16.27;;;7.00;;
1591;SDS011;789;51.612;7.510;2023-10-13T09:06:53;21.20;;;7.70;;
1591;SDS011;789;51.612;7.510;2023-10-13T09:09:33;15.80;;;7.27;;
1591;SDS011;789;51.612;7.510;2023-10-13T09:12:24;14.57;;;9.50;;
1591;SDS011;789;51.612;7.510;2023-10-13T09:15:01;15.00;;;8.77;;
1591;SDS011;789;51.612;7.510;2023-10-13T09:17:44;10.63;;;7.80;;
1591;SDS011;789;51.612;7.510;2023-10-13T09:20:17;11.73;;;6.37;;
1591;SDS011;789;51.612;7.510;2023-10-13T09:22:58;12.70;;;6.30;;
1591;SDS011;789;51.612;7.510;2023-10-13T09:25:33;20.63;;;6.50;;
1591;SDS011;789;51.612;7.510;2023-10-13T09:28:01;20.47;;;6.07;;
1591;SDS011;789;51.612;7.510;2023-10-13T09:30:35;15.03;;;6.97;;
1591;SDS011;789;51.612;7.510;2023-10-13T09:33:11;14.40;;;7.30;;
1591;SDS011;789;51.612;7.510;2023-10-13T09:35:41;15.37;;;6.83;;
1591;SDS011;789;51.612;7.510;2023-10-13T09:38:14;18.83;;;7.00;;
1591;SDS011;789;51.612;7.510;2023-10-13T09:40:40;14.97;;;6.20;;
1591;SDS011;789;51.612;7.510;2023-10-13T09:43:15;14.90;;;6.70;;
1591;SDS011;789;51.612;7.510;2023-10-13T09:45:43;16.47;;;6.40;;
1591;SDS011;789;51.612;7.510;2023-10-13T09:48:30;18.37;;;6.93;;
1591;SDS011;789;51.612;7.510;2023-10-13T09:50:59;13.20;;;6.67;;
1591;SDS011;789;51.612;7.510;2023-10-13T09:53:27;15.60;;;7.60;;
1591;SDS011;789;51.612;7.510;2023-10-13T09:55:58;14.53;;;7.50;;
1591;SDS011;789;51.612;7.510;2023-10-13T09:58:38;14.77;;;6.27;;
1591;SDS011;789;51.612;7.510;2023-10-13T10:01:13;13.57;;;6.90;;
1591;SDS011;789;51.612;7.510;2023-10-13T10:03:47;17.93;;;6.57;;
1591;SDS011;789;51.612;7.510;2023-10-13T10:06:32;14.37;;;6.03;;
1591;SDS011;789;51.612;7.510;2023-10-13T10:09:07;20.13;;;6.40;;
1591;SDS011;789;51.612;7.510;2023-10-13T10:14:46;15.37;;;6.33;;
1591;SDS011;789;51.612;7.510;2023-10-13T10:17:39;12.60;;;6.10;;
1591;SDS011;789;51.612;7.510;2023-10-13T10:20:09;15.87;;;6.20;;
1591;SDS011;789;51.612;7.510;2023-10-13T10:22:55;9.97;;;6.60;;
1591;SDS011;789;51.612;7.510;2023-10-13T10:25:28;15.07;;;7.27;;
1591;SDS011;789;51.612;7.510;2023-10-13T10:28:00;12.67;;;6.87;;
1591;SDS011;789;51.612;7.510;2023-10-13T10:30:30;13.77;;;7.40;;
1591;SDS011;789;51.612;7.510;2023-10-13T10:32:59;12.93;;;6.80;;
1591;SDS011;789;51.612;7.510;2023-10-13T10:35:33;13.43;;;7.03;;
1591;SDS011;789;51.612;7.510;2023-10-13T10:38:07;15.23;;;7.83;;
1591;SDS011;789;51.612;7.510;2023-10-13T10:40:48;14.27;;;6.63;;
1591;SDS011;789;51.612;7.510;2023-10-13T10:43:18;12.93;;;7.60;;
1591;SDS011;789;51.612;7.510;2023-10-13T10:45:45;17.37;;;7.20;;
1591;SDS011;789;51.612;7.510;2023-10-13T10:48:15;15.00;;;7.90;;
1591;SDS011;789;51.612;7.510;2023-10-13T10:50:52;11.90;;;7.67;;
1591;SDS011;789;51.612;7.510;2023-10-13T10:53:20;15.93;;;7.80;;
1591;SDS011;789;51.612;7.510;2023-10-13T10:56:03;18.13;;;7.10;;
1591;SDS011;789;51.612;7.510;2023-10-13T10:58:33;11.30;;;6.57;;
1591;SDS011;789;51.612;7.510;2023-10-13T11:01:09;14.63;;;7.97;;
1591;SDS011;789;51.612;7.510;2023-10-13T11:03:37;13.70;;;8.30;;
1591;SDS011;789;51.612;7.510;2023-10-13T11:06:12;13.10;;;7.43;;
1591;SDS011;789;51.612;7.510;2023-10-13T11:08:43;13.43;;;7.00;;
1591;SDS011;789;51.612;7.510;2023-10-13T11:11:16;19.33;;;8.37;;
1591;SDS011;789;51.612;7.510;2023-10-13T11:13:55;14.37;;;7.60;;
1591;SDS011;789;51.612;7.510;2023-10-13T11:16:44;13.60;;;7.23;;
1591;SDS011;789;51.612;7.510;2023-10-13T11:19:15;13.80;;;8.40;;
1591;SDS011;789;51.612;7.510;2023-10-13T11:21:46;13.87;;;8.33;;
1591;SDS011;789;51.612;7.510;2023-10-13T11:24:13;12.57;;;7.87;;
1591;SDS011;789;51.612;7.510;2023-10-13T11:26:42;14.97;;;8.73;;
1591;SDS011;789;51.612;7.510;2023-10-13T11:29:14;14.43;;;8.70;;
1591;SDS011;789;51.612;7.510;2023-10-13T11:31:44;12.97;;;7.73;;
1591;SDS011;789;51.612;7.510;2023-10-13T11:34:18;14.10;;;8.87;;
1591;SDS011;789;51.612;7.510;2023-10-13T11:36:46;20.43;;;9.37;;
1591;SDS011;789;51.612;7.510;2023-10-13T11:39:13;12.60;;;7.97;;
1591;SDS011;789;51.612;7.510;2023-10-13T11:41:47;17.60;;;9.60;;
1591;SDS011;789;51.612;7.510;2023-10-13T11:44:19;17.67;;;8.80;;
1591;SDS011;789;51.612;7.510;2023-10-13T11:47:08;15.90;;;11.03;;
1591;SDS011;789;51.612;7.510;2023-10-13T11:49:57;15.70;;;9.67;;
1591;SDS011;789;51.612;7.510;2023-10-13T11:52:26;17.67;;;10.90;;
1591;SDS011;789;51.612;7.510;2023-10-13T11:54:55;13.57;;;9.20;;
1591;SDS011;789;51.612;7.510;2023-10-13T11:57:21;17.77;;;10.90;;
1591;SDS011;789;51.612;7.510;2023-10-13T11:59:49;11.70;;;7.63;;
1591;SDS011;789;51.612;7.510;2023-10-13T12:02:41;13.50;;;8.57;;
1591;SDS011;789;51.612;7.510;2023-10-13T12:05:25;13.00;;;8.20;;
1591;SDS011;789;51.612;7.510;2023-10-13T12:08:04;17.00;;;9.80;;
1591;SDS011;789;51.612;7.510;2023-10-13T12:10:44;12.47;;;9.07;;
1591;SDS011;789;51.612;7.510;2023-10-13T12:13:24;15.83;;;9.00;;
1591;SDS011;789;51.612;7.510;2023-10-13T12:15:51;15.83;;;8.53;;
1591;SDS011;789;51.612;7.510;2023-10-13T12:18:21;17.07;;;8.80;;
1591;SDS011;789;51.612;7.510;2023-10-13T12:20:48;15.43;;;10.10;;
1591;SDS011;789;51.612;7.510;2023-10-13T12:23:16;16.93;;;9.90;;
1591;SDS011;789;51.612;7.510;2023-10-13T12:25:45;17.90;;;8.67;;
1591;SDS011;789;51.612;7.510;2023-10-13T12:28:22;14.80;;;8.60;;
1591;SDS011;789;51.612;7.510;2023-10-13T12:30:52;14.20;;;9.67;;
1591;SDS011;789;51.612;7.510;2023-10-13T12:33:19;31.03;;;11.50;;
1591;SDS011;789;51.612;7.510;2023-10-13T12:36:05;18.70;;;8.90;;
1591;SDS011;789;51.612;7.510;2023-10-13T12:38:35;14.53;;;9.40;;
1591;SDS011;789;51.612;7.510;2023-10-13T12:41:04;17.30;;;8.67;;
1591;SDS011;789;51.612;7.510;2023-10-13T12:43:49;14.63;;;9.03;;
1591;SDS011;789;51.612;7.510;2023-10-13T12:46:33;16.37;;;8.83;;
1591;SDS011;789;51.612;7.510;2023-10-13T12:49:18;17.70;;;9.13;;
1591;SDS011;789;51.612;7.510;2023-10-13T12:52:04;11.87;;;8.37;;
1591;SDS011;789;51.612;7.510;2023-10-13T12:54:31;21.57;;;9.40;;
1591;SDS011;789;51.612;7.510;2023-10-13T12:57:01;14.87;;;8.37;;
1591;SDS011;789;51.612;7.510;2023-10-13T12:59:33;17.63;;;9.10;;
1591;SDS011;789;51.612;7.510;2023-10-13T13:02:00;37.50;;;10.83;;
1591;SDS011;789;51.612;7.510;2023-10-13T13:04:32;14.97;;;8.47;;
1591;SDS011;789;51.612;7.510;2023-10-13T13:07:01;21.20;;;9.40;;
1591;SDS011;789;51.612;7.510;2023-10-13T13:09:29;22.70;;;9.43;;
1591;SDS011;789;51.612;7.510;2023-10-13T13:12:02;18.20;;;9.40;;
1591;SDS011;789;51.612;7.510;2023-10-13T13:14:31;16.60;;;8.60;;
1591;SDS011;789;51.612;7.510;2023-10-13T13:16:59;17.77;;;9.47;;
1591;SDS011;789;51.612;7.510;2023-10-13T13:19:30;14.23;;;8.53;;
1591;SDS011;789;51.612;7.510;2023-10-13T13:22:01;14.77;;;8.47;;
1591;SDS011;789;51.612;7.510;2023-10-13T13:24:28;13.53;;;8.00;;
1591;SDS011;789;51.612;7.510;2023-10-13T13:26:57;24.83;;;10.10;;
1591;SDS011;789;51.612;7.510;2023-10-13T13:29:28;14.50;;;8.30;;
1591;SDS011;789;51.612;7.510;2023-10-13T13:31:56;16.53;;;8.00;;
1591;SDS011;789;51.612;7.510;2023-10-13T13:34:25;17.70;;;8.67;;
1591;SDS011;789;51.612;7.510;2023-10-13T13:36:52;38.20;;;11.20;;
1591;SDS011;789;51.612;7.510;2023-10-13T13:39:19;17.60;;;8.60;;
1591;SDS011;789;51.612;7.510;2023-10-13T13:41:54;45.73;;;11.10;;
1591;SDS011;789;51.612;7.510;2023-10-13T13:44:23;27.47;;;9.33;;
1591;SDS011;789;51.612;7.510;2023-10-13T13:46:54;50.67;;;12.20;;
1591;SDS011;789;51.612;7.510;2023-10-13T13:49:22;21.47;;;9.17;;
1591;SDS011;789;51.612;7.510;2023-10-13T13:51:55;17.20;;;7.73;;
1591;SDS011;789;51.612;7.510;2023-10-13T13:54:22;22.87;;;7.93;;
1591;SDS011;789;51.612;7.510;2023-10-13T13:56:52;19.73;;;8.83;;
1591;SDS011;789;51.612;7.510;2023-10-13T13:59:19;20.27;;;8.20;;
1591;SDS011;789;51.612;7.510;2023-10-13T14:01:47;16.87;;;8.17;;
1591;SDS011;789;51.612;7.510;2023-10-13T14:04:16;15.20;;;7.97;;
1591;SDS011;789;51.612;7.510;2023-10-13T14:06:43;14.53;;;8.53;;
1591;SDS011;789;51.612;7.510;2023-10-13T14:09:11;14.50;;;7.43;;
1591;SDS011;789;51.612;7.510;2023-10-13T14:11:57;23.10;;;9.20;;
1591;SDS011;789;51.612;7.510;2023-10-13T14:14:41;17.93;;;8.00;;
1591;SDS011;789;51.612;7.510;2023-10-13T14:17:22;21.13;;;8.47;;
1591;SDS011;789;51.612;7.510;2023-10-13T14:19:54;21.43;;;8.07;;
1591;SDS011;789;51.612;7.510;2023-10-13T14:22:21;20.00;;;7.63;;
1591;SDS011;789;51.612;7.510;2023-10-13T14:24:50;26.37;;;9.00;;
1591;SDS011;789;51.612;7.510;2023-10-13T14:27:20;14.00;;;8.00;;
1591;SDS011;789;51.612;7.510;2023-10-13T14:29:48;16.33;;;7.80;;
1591;SDS011;789;51.612;7.510;2023-10-13T14:32:18;15.07;;;8.83;;
1591;SDS011;789;51.612;7.510;2023-10-13T14:34:50;17.27;;;8.23;;
1591;SDS011;789;51.612;7.510;2023-10-13T14:37:21;15.63;;;7.50;;
1591;SDS011;789;51.612;7.510;2023-10-13T14:39:53;19.07;;;8.20;;
1591;SDS011;789;51.612;7.510;2023-10-13T14:42:22;16.17;;;8.10;;
1591;SDS011;789;51.612;7.510;2023-10-13T14:44:49;17.57;;;8.13;;
1591;SDS011;789;51.612;7.510;2023-10-13T14:47:20;20.97;;;7.73;;
1591;SDS011;789;51.612;7.510;2023-10-13T14:49:51;15.03;;;7.73;;
1591;SDS011;789;51.612;7.510;2023-10-13T14:52:24;17.77;;;7.60;;
1591;SDS011;789;51.612;7.510;2023-10-13T14:54:52;23.03;;;8.90;;
1591;SDS011;789;51.612;7.510;2023-10-13T14:57:21;17.57;;;7.30;;
1591;SDS011;789;51.612;7.510;2023-10-13T14:59:50;16.67;;;7.67;;
1591;SDS011;789;51.612;7.510;2023-10-13T15:02:20;18.00;;;7.60;;
1591;SDS011;789;51.612;7.510;2023-10-13T15:04:47;13.40;;;7.00;;
1591;SDS011;789;51.612;7.510;2023-10-13T15:07:16;14.13;;;7.77;;
1591;SDS011;789;51.612;7.510;2023-10-13T15:09:44;20.33;;;7.20;;
1591;SDS011;789;51.612;7.510;2023-10-13T15:12:11;21.97;;;7.93;;
1591;SDS011;789;51.612;7.510;2023-10-13T15:14:38;14.20;;;7.00;;
1591;SDS011;789;51.612;7.510;2023-10-13T15:17:07;13.60;;;7.57;;
1591;SDS011;789;51.612;7.510;2023-10-13T15:19:35;13.50;;;6.83;;
1591;SDS011;789;51.612;7.510;2023-10-13T15:22:03;17.50;;;7.60;;
1591;SDS011;789;51.612;7.510;2023-10-13T15:24:39;22.50;;;7.33;;
1591;SDS011;789;51.612;7.510;2023-10-13T15:27:10;19.07;;;7.60;;
1591;SDS011;789;51.612;7.510;2023-10-13T15:29:37;16.87;;;7.37;;
1591;SDS011;789;51.612;7.510;2023-10-13T15:32:04;13.33;;;7.53;;
1591;SDS011;789;51.612;7.510;2023-10-13T15:34:51;12.47;;;6.63;;
1591;SDS011;789;51.612;7.510;2023-10-13T15:37:19;17.50;;;6.90;;
1591;SDS011;789;51.612;7.510;2023-10-13T15:39:51;17.53;;;7.50;;
1591;SDS011;789;51.612;7.510;2023-10-13T15:42:18;18.70;;;7.23;;
1591;SDS011;789;51.612;7.510;2023-10-13T15:44:46;11.57;;;6.30;;
1591;SDS011;789;51.612;7.510;2023-10-13T15:47:13;15.77;;;7.67;;
1591;SDS011;789;51.612;7.510;2023-10-13T15:49:40;20.40;;;6.50;;
1591;SDS011;789;51.612;7.510;2023-10-13T15:52:07;19.70;;;7.53;;